Time;durP1;ratioP1;P1;durP2;ratioP2;P2;SDS_P1;SDS_P2;PMS_P1;PMS_P2;Temp;Humidity;BMP_temperature;BMP_pressure;BME280_temperature;BME280_humidity;BME280_pressure;Samples;Min_cycle;Max_cycle;Signal;HPM_P1;HPM_P2
2022/12/07 00:00:29;;;;;;;24.65;13.13;;;;;;;7.53;62.83;94944.09;4952844;28;20394;-75
2022/12/07 00:02:55;;;;;;;21.55;12.93;;;;;;;7.53;62.76;94938.63;4968596;28;20509;-74
2022/12/07 00:05:21;;;;;;;22.02;12.60;;;;;;;7.56;62.51;94937.00;4969663;28;20027;-75
2022/12/07 00:07:46;;;;;;;25.10;13.20;;;;;;;7.54;62.58;94944.88;4969675;28;20027;-76
2022/12/07 00:10:11;;;;;;;26.35;15.05;;;;;;;7.55;62.52;94938.19;4950823;28;20042;-75
2022/12/07 00:12:37;;;;;;;28.50;13.63;;;;;;;7.61;62.13;94936.53;4952864;28;20509;-76
2022/12/07 00:15:02;;;;;;;26.83;13.15;;;;;;;7.54;62.23;94939.38;4950220;28;20034;-76
2022/12/07 00:17:28;;;;;;;31.35;15.05;;;;;;;7.37;62.64;94942.00;4952676;28;20123;-76
2022/12/07 00:19:53;;;;;;;26.80;14.95;;;;;;;7.33;63.11;94943.25;4950568;28;20031;-76
2022/12/07 00:22:19;;;;;;;26.73;14.48;;;;;;;7.31;63.22;94942.91;4952416;28;20065;-76
2022/12/07 00:24:44;;;;;;;24.92;14.55;;;;;;;7.33;63.31;94943.25;4983789;28;20030;-76
2022/12/07 00:27:09;;;;;;;28.00;14.80;;;;;;;7.37;63.04;94944.75;4951486;28;20033;-76
2022/12/07 00:29:36;;;;;;;30.20;14.23;;;;;;;7.39;63.13;94947.03;4969877;28;20030;-75
2022/12/07 00:32:02;;;;;;;24.35;14.18;;;;;;;7.38;63.00;94934.56;4982338;28;20035;-76
2022/12/07 00:34:28;;;;;;;26.77;14.77;;;;;;;7.44;62.98;94955.56;4969606;28;20030;-76
2022/12/07 00:36:53;;;;;;;36.13;17.45;;;;;;;7.43;62.95;94958.72;4967532;28;20524;-75
2022/12/07 00:39:19;;;;;;;34.38;16.98;;;;;;;7.42;63.33;94957.94;4969336;28;20512;-75
2022/12/07 00:41:45;;;;;;;33.58;16.13;;;;;;;7.47;63.25;94945.75;4967587;28;20504;-76
2022/12/07 00:44:11;;;;;;;29.50;15.38;;;;;;;7.51;63.03;94945.69;4969081;28;20106;-76
2022/12/07 00:46:36;;;;;;;26.40;14.43;;;;;;;7.53;63.06;94933.16;4951494;28;20409;-76
2022/12/07 00:49:02;;;;;;;28.08;15.52;;;;;;;7.52;63.16;94939.81;4968080;28;20042;-76
2022/12/07 00:51:27;;;;;;;24.52;14.20;;;;;;;7.46;63.30;94927.81;4967794;28;20130;-76
2022/12/07 00:53:53;;;;;;;26.63;13.98;;;;;;;7.55;63.22;94941.69;4967495;28;20027;-76
2022/12/07 00:56:20;;;;;;;24.83;14.65;;;;;;;7.55;63.29;94938.19;4951877;28;20089;-76
2022/12/07 00:58:50;;;;;;;31.30;15.43;;;;;;;7.57;63.04;94928.41;4965755;28;20162;-76
2022/12/07 01:01:16;;;;;;;25.02;14.63;;;;;;;7.59;63.06;94934.22;4967414;28;20443;-76
2022/12/07 01:03:41;;;;;;;29.40;14.68;;;;;;;7.57;62.81;94928.41;4967989;28;20042;-76
2022/12/07 01:06:07;;;;;;;25.80;14.20;;;;;;;7.60;62.67;94941.22;4968554;28;20027;-76
2022/12/07 01:08:32;;;;;;;26.02;14.70;;;;;;;7.56;62.82;94937.78;4969047;28;20030;-75
2022/12/07 01:11:05;;;;;;;28.98;15.63;;;;;;;7.54;62.99;94937.44;4981910;28;20040;-76
2022/12/07 01:13:31;;;;;;;27.58;16.60;;;;;;;7.53;63.24;94927.69;4967017;28;20038;-76
2022/12/07 01:15:59;;;;;;;32.78;17.40;;;;;;;7.51;63.52;94919.09;4965668;28;20409;-76
2022/12/07 01:18:25;;;;;;;32.72;16.90;;;;;;;7.51;63.51;94921.06;4967749;28;20031;-76
2022/12/07 01:21:01;;;;;;;27.08;16.75;;;;;;;7.54;63.43;94921.00;4949981;28;20030;-76
2022/12/07 01:23:27;;;;;;;27.05;15.95;;;;;;;7.55;63.48;94919.81;4950623;28;20031;-76
2022/12/07 01:25:59;;;;;;;34.63;17.83;;;;;;;7.57;63.58;94920.19;4966788;28;20022;-76
2022/12/07 01:28:25;;;;;;;30.00;16.77;;;;;;;7.58;63.37;94913.53;4949206;28;20019;-75
2022/12/07 01:31:11;;;;;;;31.20;17.08;;;;;;;7.52;63.57;94904.25;4951379;28;20049;-76
2022/12/07 01:33:37;;;;;;;33.83;17.35;;;;;;;7.60;63.51;94921.31;4966306;28;20029;-77
2022/12/07 01:36:03;;;;;;;28.33;16.35;;;;;;;7.59;63.52;94914.28;4983612;28;20031;-76
2022/12/07 01:38:29;;;;;;;25.92;15.48;;;;;;;7.55;63.43;94908.88;4949785;28;20038;-76
2022/12/07 01:40:55;;;;;;;26.88;15.13;;;;;;;7.59;63.27;94911.56;4965983;28;20031;-76
2022/12/07 01:43:21;;;;;;;26.73;15.10;;;;;;;7.59;63.21;94909.59;4967092;28;20033;-76
2022/12/07 01:45:46;;;;;;;26.98;16.23;;;;;;;7.63;62.85;94910.31;4981285;28;20026;-76
2022/12/07 01:48:13;;;;;;;30.17;15.70;;;;;;;7.60;62.64;94899.41;4983379;28;20038;-76
2022/12/07 01:50:39;;;;;;;30.90;15.57;;;;;;;7.60;62.62;94902.94;4980705;28;20062;-75
2022/12/07 01:53:05;;;;;;;30.27;15.60;;;;;;;7.50;63.01;94892.16;4967103;28;20027;-75
2022/12/07 01:55:31;;;;;;;36.00;16.40;;;;;;;7.49;62.95;94893.38;4981482;28;20505;-75
2022/12/07 01:57:56;;;;;;;27.27;16.17;;;;;;;7.52;62.74;94898.78;4983191;28;20026;-76
2022/12/07 02:00:22;;;;;;;28.58;16.58;;;;;;;7.53;62.64;94894.09;4983207;28;20524;-76
2022/12/07 02:02:51;;;;;;;28.33;15.95;;;;;;;7.56;62.65;94899.47;4965470;28;20477;-75
2022/12/07 02:05:17;;;;;;;28.88;16.42;;;;;;;7.59;62.83;94901.38;4982862;28;20561;-75
2022/12/07 02:07:42;;;;;;;26.50;15.98;;;;;;;7.59;62.74;94901.38;4948535;28;20101;-75
2022/12/07 02:10:17;;;;;;;25.40;15.45;;;;;;;7.58;63.00;94899.06;4967189;28;20039;-75
2022/12/07 02:12:43;;;;;;;30.67;16.80;;;;;;;7.58;62.91;94890.88;4966227;28;20038;-75
2022/12/07 02:15:09;;;;;;;27.58;16.20;;;;;;;7.59;63.02;94897.88;4966540;28;20051;-75
2022/12/07 02:17:50;;;;;;;26.20;16.60;;;;;;;7.54;63.30;94895.63;4950006;28;20033;-75
2022/12/07 02:20:33;;;;;;;33.50;16.75;;;;;;;7.54;63.70;94893.66;4980091;28;20042;-75
2022/12/07 02:22:59;;;;;;;;;;;;;;;7.55;63.22;94887.00;4967592;28;20027;-75
2022/12/07 02:25:42;;;;;;;33.95;17.63;;;;;;;7.52;63.45;94896.03;4966275;28;19924;-75
2022/12/07 02:28:31;;;;;;;34.78;18.38;;;;;;;7.52;63.64;94890.56;4982020;28;20056;-75
2022/12/07 02:30:58;;;;;;;32.03;18.00;;;;;;;7.52;63.44;94878.88;4982463;28;20434;-75
2022/12/07 02:33:41;;;;;;;31.13;17.88;;;;;;;7.51;63.39;94875.31;4964272;28;20118;-75
2022/12/07 02:36:10;;;;;;;29.90;16.70;;;;;;;7.54;63.53;94882.72;4968010;28;20031;-75
2022/12/07 02:38:40;;;;;;;29.80;16.85;;;;;;;7.54;63.47;94879.97;4950840;28;20043;-75
2022/12/07 02:41:10;;;;;;;28.15;16.40;;;;;;;7.51;63.37;94888.25;4986462;28;20040;-75
2022/12/07 02:43:39;;;;;;;31.02;17.52;;;;;;;7.51;63.64;94880.81;4969171;28;20034;-76
2022/12/07 02:46:07;;;;;;;29.17;17.20;;;;;;;7.55;63.24;94886.22;4968848;28;20034;-75
2022/12/07 02:48:33;;;;;;;27.63;16.45;;;;;;;7.51;63.21;94869.84;4970174;28;20034;-75
2022/12/07 02:50:58;;;;;;;28.33;15.48;;;;;;;7.51;63.26;94885.50;4968018;28;20054;-75
2022/12/07 02:53:35;;;;;;;31.00;16.35;;;;;;;7.48;63.31;94872.69;4954381;28;20501;-75
2022/12/07 02:56:26;;;;;;;25.10;15.77;;;;;;;7.47;63.50;94877.38;4984562;28;20249;-75
2022/12/07 02:59:14;;;;;;;28.02;15.48;;;;;;;7.39;63.57;94868.50;4937010;28;20031;-75
2022/12/07 03:01:39;;;;;;;30.45;16.95;;;;;;;7.38;63.58;94868.94;4969958;28;20576;-75
2022/12/07 03:04:31;;;;;;;27.98;15.48;;;;;;;7.37;63.63;94864.66;4984153;28;20166;-75
2022/12/07 03:06:59;;;;;;;28.02;16.95;;;;;;;7.35;63.54;94856.88;4970914;28;20038;-75
2022/12/07 03:09:37;;;;;;;29.00;16.48;;;;;;;7.36;63.52;94857.66;4968466;28;20505;-75
2022/12/07 03:12:53;;;;;;;26.02;16.58;;;;;;;7.31;63.40;94869.84;4984438;28;20437;-75
2022/12/07 03:15:27;;;;;;;28.98;15.63;;;;;;;7.30;63.49;94856.59;4952918;28;20113;-75
2022/12/07 03:17:52;;;;;;;23.65;15.20;;;;;;;7.30;63.48;94864.78;4967191;28;20039;-75
2022/12/07 03:20:19;;;;;;;31.17;17.13;;;;;;;7.28;63.35;94859.72;4953142;28;20038;-75
2022/12/07 03:22:44;;;;;;;27.70;14.77;;;;;;;7.27;63.47;94860.91;4969080;28;20499;-75
2022/12/07 03:25:11;;;;;;;26.45;14.85;;;;;;;7.25;63.70;94868.75;4968011;28;20031;-75
2022/12/07 03:27:48;;;;;;;27.08;15.40;;;;;;;7.18;63.76;94868.91;4953446;28;20532;-75
2022/12/07 03:30:17;;;;;;;24.70;15.13;;;;;;;7.17;64.04;94870.84;4951569;28;20066;-74
2022/12/07 03:32:48;;;;;;;27.63;16.27;;;;;;;7.16;63.95;94866.56;4969002;28;20034;-74
2022/12/07 03:35:25;;;;;;;29.33;15.68;;;;;;;7.17;64.19;94859.16;4951964;28;20551;-74
2022/12/07 03:37:54;;;;;;;27.70;15.50;;;;;;;7.13;64.13;94858.44;4967027;28;20047;-74
2022/12/07 03:40:25;;;;;;;27.83;14.77;;;;;;;7.13;63.92;94861.94;4952825;28;20407;-74
2022/12/07 03:42:50;;;;;;;26.50;15.00;;;;;;;7.10;64.15;94867.44;4983203;28;20034;-74
2022/12/07 03:45:16;;;;;;;27.40;14.60;;;;;;;7.09;64.29;94869.41;4969371;28;20019;-75
2022/12/07 03:47:47;;;;;;;28.27;14.77;;;;;;;7.07;64.10;94873.75;4983269;28;20082;-74
2022/12/07 03:50:22;;;;;;;30.88;16.10;;;;;;;7.05;64.43;94873.38;4968262;28;20070;-74
2022/12/07 03:53:09;;;;;;;29.90;16.60;;;;;;;7.07;64.24;94858.13;4969514;28;20073;-74
2022/12/07 03:55:36;;;;;;;28.10;15.55;;;;;;;7.06;64.42;94859.31;4964617;28;20227;-74
2022/12/07 03:58:04;;;;;;;25.45;15.20;;;;;;;7.10;64.38;94856.50;4968837;28;20035;-74
2022/12/07 04:00:29;;;;;;;25.10;14.43;;;;;;;7.06;64.62;94862.06;4950732;28;20035;-74
2022/12/07 04:02:55;;;;;;;26.35;14.80;;;;;;;7.06;64.34;94853.84;4968916;28;20405;-74
2022/12/07 04:05:21;;;;;;;23.02;14.13;;;;;;;7.10;64.36;94859.25;4983330;28;20113;-74
2022/12/07 04:07:46;;;;;;;24.13;14.93;;;;;;;7.09;64.50;94847.53;4984848;28;20087;-74
2022/12/07 04:10:11;;;;;;;27.45;15.82;;;;;;;7.10;64.39;94851.81;4967956;28;20038;-75
2022/12/07 04:12:37;;;;;;;31.15;15.70;;;;;;;7.10;64.09;94851.81;4967163;28;20030;-76
2022/12/07 04:15:03;;;;;;;29.98;17.10;;;;;;;7.10;64.36;94851.06;4968552;28;20402;-75
2022/12/07 04:17:29;;;;;;;29.73;16.52;;;;;;;7.10;64.18;94861.97;4982780;28;20034;-76
2022/12/07 04:19:54;;;;;;;30.67;18.10;;;;;;;7.06;64.37;94856.59;4984757;28;20027;-75
2022/12/07 04:22:20;;;;;;;31.70;17.85;;;;;;;7.04;64.43;94856.22;4982751;28;20023;-75
2022/12/07 04:24:45;;;;;;;35.65;20.60;;;;;;;7.05;64.65;94859.72;4968570;28;20027;-75
2022/12/07 04:27:10;;;;;;;32.72;19.88;;;;;;;7.05;64.18;94855.03;4968404;28;20031;-75
2022/12/07 04:29:36;;;;;;;36.88;20.80;;;;;;;7.03;64.53;94857.41;4968853;28;20030;-75
2022/12/07 04:32:01;;;;;;;36.45;19.17;;;;;;;7.04;64.10;94858.94;4969662;28;20035;-76
2022/12/07 04:34:27;;;;;;;34.88;18.58;;;;;;;6.98;64.60;94857.09;4982368;28;20039;-76
2022/12/07 04:36:52;;;;;;;29.85;17.98;;;;;;;6.95;64.86;94853.25;4984592;28;20531;-76
2022/12/07 04:39:19;;;;;;;29.90;17.58;;;;;;;6.96;64.78;94851.28;4966044;28;20030;-75
2022/12/07 04:41:44;;;;;;;28.55;17.42;;;;;;;6.97;64.82;94856.34;4969977;28;20027;-76
2022/12/07 04:44:10;;;;;;;33.42;18.63;;;;;;;6.98;64.87;94852.41;4967449;28;20030;-76
2022/12/07 04:46:35;;;;;;;34.47;17.90;;;;;;;6.96;64.76;94860.25;4968262;28;20037;-75
2022/12/07 04:49:01;;;;;;;31.83;17.60;;;;;;;6.92;65.00;94867.75;4968471;28;20039;-76
2022/12/07 04:51:27;;;;;;;31.95;16.65;;;;;;;6.93;64.72;94864.59;4950917;28;20042;-76
2022/12/07 04:53:53;;;;;;;29.98;16.88;;;;;;;6.93;64.58;94864.59;4968185;28;20027;-76
2022/12/07 04:56:19;;;;;;;27.25;16.23;;;;;;;6.97;64.59;94874.69;4965794;28;20034;-75
2022/12/07 04:58:45;;;;;;;31.83;17.95;;;;;;;6.98;64.57;94871.53;4984290;28;20482;-76
2022/12/07 05:01:10;;;;;;;34.55;18.48;;;;;;;7.00;64.44;94868.41;4965511;28;20121;-75
2022/12/07 05:03:36;;;;;;;31.35;17.65;;;;;;;6.97;64.37;94872.75;4968060;28;20029;-75
2022/12/07 05:06:02;;;;;;;29.35;16.17;;;;;;;6.98;64.35;94865.31;4965965;28;20033;-76
2022/12/07 05:08:27;;;;;;;29.40;18.48;;;;;;;6.94;64.63;94868.13;4967518;28;20417;-75
2022/12/07 05:10:53;;;;;;;33.58;20.00;;;;;;;6.92;64.68;94852.13;4968376;28;20485;-75
2022/12/07 05:13:18;;;;;;;37.80;21.13;;;;;;;6.90;64.56;94870.91;4949801;28;20031;-75
2022/12/07 05:15:44;;;;;;;38.58;21.95;;;;;;;6.90;64.37;94864.66;4968872;28;20050;-75
2022/12/07 05:18:12;;;;;;;32.25;19.38;;;;;;;6.87;64.32;94854.53;4981509;28;20026;-75
2022/12/07 05:20:38;;;;;;;31.67;18.17;;;;;;;6.91;64.31;94872.44;4967130;28;20038;-75
2022/12/07 05:23:03;;;;;;;33.70;18.10;;;;;;;6.83;64.42;94870.25;4966431;28;20502;-75
2022/12/07 05:25:29;;;;;;;28.42;17.42;;;;;;;6.86;64.35;94869.41;4983819;28;20034;-75
2022/12/07 05:27:55;;;;;;;30.95;17.63;;;;;;;6.86;64.26;94863.94;4966278;28;20031;-74
2022/12/07 05:30:21;;;;;;;29.02;17.08;;;;;;;6.85;64.47;94856.94;4965989;28;20134;-75
2022/12/07 05:32:47;;;;;;;35.95;18.60;;;;;;;6.84;64.78;94863.59;4983410;28;20378;-75
2022/12/07 05:35:12;;;;;;;31.42;18.08;;;;;;;6.81;64.67;94864.41;4948825;28;20458;-75
2022/12/07 05:37:37;;;;;;;30.17;18.08;;;;;;;6.80;64.41;94865.59;4983288;28;20039;-75
2022/12/07 05:40:04;;;;;;;32.63;18.75;;;;;;;6.80;64.44;94865.59;4966527;28;20035;-75
2022/12/07 05:42:30;;;;;;;33.20;18.60;;;;;;;6.80;64.47;94860.91;4950903;28;20037;-75
2022/12/07 05:44:55;;;;;;;29.58;17.45;;;;;;;6.78;64.43;94855.09;4949298;28;20034;-75
2022/12/07 05:47:21;;;;;;;31.40;17.92;;;;;;;6.81;64.58;94856.19;4982940;28;20078;-75
2022/12/07 05:49:46;;;;;;;31.48;19.17;;;;;;;6.82;64.60;94853.03;4967714;28;20106;-76
2022/12/07 05:52:12;;;;;;;34.45;19.00;;;;;;;6.83;64.62;94849.16;4949256;28;20046;-75
2022/12/07 05:54:37;;;;;;;33.40;19.85;;;;;;;6.84;64.56;94855.38;4967239;28;20325;-74
2022/12/07 05:57:03;;;;;;;36.13;20.48;;;;;;;6.84;64.53;94855.38;4965091;28;20027;-76
2022/12/07 05:59:28;;;;;;;37.95;21.30;;;;;;;6.83;64.68;94845.66;4968298;28;20042;-77
2022/12/07 06:01:55;;;;;;;32.72;20.65;;;;;;;6.83;64.66;94840.19;4966329;28;20387;-76
2022/12/07 06:04:20;;;;;;;41.65;24.52;;;;;;;6.82;64.48;94849.53;4967881;28;20406;-74
2022/12/07 06:06:46;;;;;;;44.83;26.35;;;;;;;6.82;64.82;94855.00;4965445;28;20089;-74
2022/12/07 06:09:14;;;;;;;40.45;26.63;;;;;;;6.82;64.71;94853.03;4967368;28;20027;-75
2022/12/07 06:14:24;;;;;;;48.90;28.77;;;;;;;6.78;64.77;94855.09;4957450;28;20580;-74
2022/12/07 06:16:49;;;;;;;48.70;29.58;;;;;;;6.78;64.76;94859.78;4973290;28;20023;-75
2022/12/07 06:19:15;;;;;;;48.25;28.65;;;;;;;6.81;64.76;94864.41;4987144;28;20041;-74
2022/12/07 06:21:40;;;;;;;48.95;27.35;;;;;;;6.82;64.46;94860.47;4957081;28;20057;-74
2022/12/07 06:24:06;;;;;;;45.78;27.58;;;;;;;6.87;64.69;94863.50;4971872;28;20030;-74
2022/12/07 06:26:31;;;;;;;49.08;28.30;;;;;;;6.88;64.54;94861.56;4956075;28;20026;-75
2022/12/07 06:28:57;;;;;;;50.13;30.15;;;;;;;6.88;64.46;94865.09;4972961;28;20023;-75
2022/12/07 06:31:22;;;;;;;49.88;28.98;;;;;;;6.84;64.67;94861.63;4970944;28;20386;-76
2022/12/07 06:33:48;;;;;;;47.28;26.80;;;;;;;6.87;64.67;94868.22;4973260;28;20410;-74
2022/12/07 06:36:13;;;;;;;46.22;27.60;;;;;;;6.91;64.65;94882.59;4954788;28;20478;-75
2022/12/07 06:38:39;;;;;;;41.95;26.75;;;;;;;6.97;64.46;94880.16;4988865;28;20038;-75
2022/12/07 06:41:04;;;;;;;38.38;24.23;;;;;;;6.98;64.56;94876.25;4972414;28;20034;-74
2022/12/07 06:43:29;;;;;;;46.47;27.67;;;;;;;6.95;64.35;94877.84;5005331;28;20030;-74
2022/12/07 06:45:55;;;;;;;47.97;27.73;;;;;;;6.99;64.42;94883.25;4988428;28;20019;-74
2022/12/07 06:48:20;;;;;;;46.25;26.52;;;;;;;6.90;64.42;94873.63;4988368;28;20019;-74
2022/12/07 06:50:46;;;;;;;43.40;24.80;;;;;;;6.94;64.37;94884.50;4972889;28;20061;-75
2022/12/07 06:53:12;;;;;;;49.92;26.73;;;;;;;7.00;64.13;94887.56;4954915;28;20041;-75
2022/12/07 06:55:37;;;;;;;49.70;29.15;;;;;;;7.06;64.19;94885.88;4989264;28;20376;-76
2022/12/07 06:58:03;;;;;;;43.20;26.67;;;;;;;7.08;64.00;94875.31;4987262;28;20023;-75
2022/12/07 07:00:28;;;;;;;45.25;25.55;;;;;;;7.08;64.03;94873.34;4974270;28;20026;-75
2022/12/07 07:02:55;;;;;;;47.10;27.05;;;;;;;7.13;63.99;94874.84;4987524;28;20053;-76
2022/12/07 07:05:23;;;;;;;44.50;25.50;;;;;;;7.18;63.85;94885.28;4973888;28;20023;-76
2022/12/07 07:07:49;;;;;;;37.78;22.90;;;;;;;7.23;63.93;94879.34;4988318;28;20034;-76
2022/12/07 07:10:14;;;;;;;42.20;22.75;;;;;;;7.26;63.68;94883.22;4971244;28;20054;-75
2022/12/07 07:12:40;;;;;;;34.60;22.30;;;;;;;7.25;63.56;94878.94;4972869;28;20380;-75
2022/12/07 07:15:06;;;;;;;43.50;24.95;;;;;;;7.27;63.47;94884.75;4987087;28;20485;-77
2022/12/07 07:17:31;;;;;;;40.63;22.92;;;;;;;7.28;63.74;94884.31;4956546;28;20092;-75
2022/12/07 07:19:57;;;;;;;52.08;24.35;;;;;;;7.32;63.51;94884.28;4972015;28;20023;-75
2022/12/07 07:22:22;;;;;;;39.17;22.70;;;;;;;7.29;63.58;94877.69;4973998;28;20019;-74
2022/12/07 07:24:48;;;;;;;41.80;24.02;;;;;;;7.35;63.61;94878.75;4935982;28;20935;-76
2022/12/07 07:27:13;;;;;;;39.72;23.25;;;;;;;7.40;63.60;94874.78;4970072;28;20034;-75
2022/12/07 07:29:38;;;;;;;40.30;23.55;;;;;;;7.42;63.26;94880.59;4970705;28;20027;-76
2022/12/07 07:32:04;;;;;;;38.65;21.45;;;;;;;7.46;63.32;94884.03;4951623;28;20471;-76
2022/12/07 07:34:29;;;;;;;36.70;21.02;;;;;;;7.62;62.80;94880.63;4970455;28;20125;-76
2022/12/07 07:36:55;;;;;;;40.00;20.67;;;;;;;7.61;62.85;94881.81;4968425;28;20023;-75
2022/12/07 07:39:20;;;;;;;34.20;19.48;;;;;;;7.64;62.84;94884.50;4985540;28;20034;-75
2022/12/07 07:41:46;;;;;;;33.67;19.52;;;;;;;7.70;62.75;94882.81;4967350;28;20039;-75
2022/12/07 07:44:11;;;;;;;33.67;18.67;;;;;;;7.78;62.40;94882.66;4970762;28;20027;-75
2022/12/07 07:46:37;;;;;;;35.47;20.58;;;;;;;7.95;61.91;94887.03;4969660;28;20031;-75
2022/12/07 07:49:02;;;;;;;39.28;20.35;;;;;;;8.16;61.23;94883.88;4969185;28;20050;-75
2022/12/07 07:51:28;;;;;;;35.80;19.42;;;;;;;8.19;61.20;94885.75;4968910;28;20106;-75
2022/12/07 07:53:53;;;;;;;33.83;18.58;;;;;;;8.28;60.98;94879.72;4967179;28;20031;-75
2022/12/07 07:56:19;;;;;;;34.08;18.25;;;;;;;8.69;59.83;94884.72;4953366;28;20030;-75
2022/12/07 07:58:44;;;;;;;39.13;21.25;;;;;;;9.29;57.98;94876.31;4934815;28;20382;-75
2022/12/07 08:01:09;;;;;;;35.92;20.58;;;;;;;9.26;58.02;94883.41;4953118;28;20027;-75
2022/12/07 08:03:35;;;;;;;36.17;20.35;;;;;;;9.18;57.85;94889.50;4967624;28;20031;-75
2022/12/07 08:06:02;;;;;;;33.17;20.65;;;;;;;9.11;57.89;94884.16;4968358;28;20031;-75
2022/12/07 08:08:28;;;;;;;34.92;20.13;;;;;;;9.06;57.92;94880.00;4970384;28;20019;-75
2022/12/07 08:10:53;;;;;;;37.72;21.60;;;;;;;9.08;58.03;94888.53;4982933;28;20023;-75
2022/12/07 08:13:18;;;;;;;36.17;21.98;;;;;;;9.15;57.75;94888.38;4952824;28;20046;-75
2022/12/07 08:15:45;;;;;;;43.85;21.25;;;;;;;9.17;58.04;94885.97;4982974;28;20070;-75
2022/12/07 08:18:11;;;;;;;40.42;21.20;;;;;;;9.20;57.90;94887.84;4952712;28;20106;-75
2022/12/07 08:20:37;;;;;;;36.47;21.02;;;;;;;10.12;55.56;94883.91;4983097;28;20038;-76
2022/12/07 08:23:03;;;;;;;46.33;24.05;;;;;;;10.85;54.03;94876.69;4952135;28;20019;-75
2022/12/07 08:25:28;;;;;;;42.65;25.35;;;;;;;11.56;52.40;94887.38;4967778;28;20067;-75
2022/12/07 08:27:54;;;;;;;44.28;26.92;;;;;;;11.94;51.16;94881.81;4967310;28;20075;-75
2022/12/07 08:30:19;;;;;;;49.83;30.42;;;;;;;12.58;49.64;94891.72;4968367;28;20034;-75
2022/12/07 08:32:45;;;;;;;56.08;33.55;;;;;;;13.23;48.18;94891.59;4950410;28;20476;-75
2022/12/07 08:35:10;;;;;;;65.32;34.65;;;;;;;13.83;47.06;94890.34;4951597;28;20049;-75
2022/12/07 08:37:36;;;;;;;54.30;33.10;;;;;;;14.48;44.68;94891.13;4950168;28;20481;-75
2022/12/07 08:40:02;;;;;;;49.88;32.95;;;;;;;14.98;43.59;94878.56;4951958;28;20474;-75
2022/12/07 08:42:29;;;;;;;57.97;32.42;;;;;;;15.55;42.30;94878.59;4950628;28;20057;-75
2022/12/07 08:44:56;;;;;;;46.10;28.60;;;;;;;15.57;41.42;94876.13;4967777;28;20053;-75
2022/12/07 08:47:22;;;;;;;46.15;29.98;;;;;;;15.42;42.01;94872.50;4951921;28;20034;-75
2022/12/07 08:49:47;;;;;;;44.50;28.70;;;;;;;15.21;42.34;94865.25;4966155;28;20058;-76
2022/12/07 08:52:13;;;;;;;47.75;28.88;;;;;;;15.02;42.42;94865.28;4984179;28;20490;-75
2022/12/07 08:54:38;;;;;;;42.13;28.45;;;;;;;14.84;42.48;94870.91;4967285;28;20046;-75
2022/12/07 08:57:04;;;;;;;40.05;26.65;;;;;;;14.53;43.19;94860.09;4984068;28;20405;-75
2022/12/07 08:59:30;;;;;;;37.88;23.60;;;;;;;14.47;42.70;94861.94;4966306;28;20026;-75
2022/12/07 09:01:55;;;;;;;40.05;23.42;;;;;;;14.20;43.25;94859.94;4967835;28;20438;-75
2022/12/07 09:04:20;;;;;;;42.80;27.15;;;;;;;14.02;43.87;94842.16;4950832;28;20360;-76
2022/12/07 09:06:46;;;;;;;41.85;26.63;;;;;;;13.71;44.55;94844.31;4950767;28;20031;-76
2022/12/07 09:09:12;;;;;;;44.60;27.88;;;;;;;13.60;45.08;94847.50;4951270;28;20022;-75
2022/12/07 09:11:38;;;;;;;43.83;26.77;;;;;;;13.53;45.19;94850.56;4965975;28;20027;-75
2022/12/07 09:14:04;;;;;;;47.30;28.00;;;;;;;13.46;45.34;94846.09;4983559;28;20027;-76
2022/12/07 09:16:30;;;;;;;39.75;24.42;;;;;;;13.27;45.32;94842.53;4966983;28;20237;-76
2022/12/07 09:18:55;;;;;;;39.88;24.90;;;;;;;13.22;45.43;94839.59;4967413;28;20429;-76
2022/12/07 09:21:21;;;;;;;44.83;25.83;;;;;;;13.18;45.76;94841.69;4965994;28;20057;-76
2022/12/07 09:23:46;;;;;;;43.63;25.33;;;;;;;13.09;45.97;94836.94;4968898;28;20552;-76
2022/12/07 09:26:11;;;;;;;41.30;24.42;;;;;;;13.06;46.34;94839.84;4982995;28;20429;-75
2022/12/07 09:28:37;;;;;;;49.95;26.63;;;;;;;12.95;46.71;94837.50;4982530;28;20497;-75
2022/12/07 09:31:03;;;;;;;49.90;27.70;;;;;;;12.91;46.91;94839.66;4968362;28;20031;-75
2022/12/07 09:33:28;;;;;;;43.10;26.20;;;;;;;12.76;47.30;94826.41;4949332;28;20039;-76
2022/12/07 09:35:54;;;;;;;41.28;27.60;;;;;;;12.64;47.65;94826.50;4983263;28;20133;-75
2022/12/07 09:38:19;;;;;;;49.53;26.25;;;;;;;12.52;47.59;94827.38;4964879;28;20026;-75
2022/12/07 09:40:45;;;;;;;44.28;27.20;;;;;;;12.25;48.18;94811.44;4983301;28;20313;-75
2022/12/07 09:43:24;;;;;;;42.45;27.25;;;;;;;12.16;48.33;94812.16;4981822;28;20553;-76
2022/12/07 09:45:51;;;;;;;43.50;27.45;;;;;;;11.94;48.93;94812.94;4965788;28;20029;-76
2022/12/07 09:48:19;;;;;;;50.13;28.13;;;;;;;11.89;49.11;94816.25;4950019;28;20026;-76
2022/12/07 09:50:44;;;;;;;42.55;27.05;;;;;;;11.87;49.27;94807.69;4949017;28;20054;-75
2022/12/07 09:53:17;;;;;;;44.42;27.33;;;;;;;11.85;49.18;94801.84;4951107;28;20397;-76
2022/12/07 09:55:42;;;;;;;51.55;28.25;;;;;;;11.85;49.47;94814.84;4964994;28;20102;-75
2022/12/07 09:58:37;;;;;;;44.28;26.58;;;;;;;11.87;49.29;94793.13;4950863;28;20394;-76
2022/12/07 10:01:05;;;;;;;44.33;28.20;;;;;;;11.88;49.60;94798.19;4976309;28;20122;-76
2022/12/07 10:03:31;;;;;;;51.78;28.98;;;;;;;12.53;48.38;94809.59;4966607;28;20039;-75
2022/12/07 10:05:57;;;;;;;51.40;28.52;;;;;;;13.43;46.45;94802.06;4967099;28;20039;-75
2022/12/07 10:08:22;;;;;;;44.90;28.58;;;;;;;13.20;46.70;94801.41;4980799;28;20253;-76
2022/12/07 10:10:53;;;;;;;45.45;27.65;;;;;;;13.24;46.37;94790.22;4950761;28;20429;-76
2022/12/07 10:13:20;;;;;;;42.55;26.85;;;;;;;13.54;45.64;94794.88;4949107;28;20023;-76
2022/12/07 10:15:54;;;;;;;39.88;26.85;;;;;;;14.63;43.38;94780.59;4966615;28;20512;-76
2022/12/07 10:18:27;;;;;;;46.22;27.75;;;;;;;15.01;42.79;94772.41;4982177;28;20156;-76
2022/12/07 10:21:12;;;;;;;44.83;28.17;;;;;;;15.05;42.30;94769.50;4933290;28;20191;-76
2022/12/07 10:23:39;;;;;;;44.17;26.95;;;;;;;14.99;42.96;94765.84;4950625;28;20429;-76
2022/12/07 10:26:29;;;;;;;46.67;28.20;;;;;;;14.93;42.85;94760.16;4964914;28;20027;-76
2022/12/07 10:28:54;;;;;;;42.85;27.83;;;;;;;14.66;43.09;94755.53;4981905;28;20030;-76
2022/12/07 10:31:21;;;;;;;43.75;28.88;;;;;;;14.55;43.55;94744.19;4966036;28;20027;-76
2022/12/07 10:33:58;;;;;;;48.30;28.48;;;;;;;14.46;43.55;94747.75;4965224;28;20210;-76
2022/12/07 10:36:27;;;;;;;47.05;27.73;;;;;;;14.60;43.50;94747.09;4966348;28;20374;-75
2022/12/07 10:39:03;;;;;;;40.55;26.95;;;;;;;14.79;42.70;94750.53;4964322;28;20509;-75
2022/12/07 10:41:29;;;;;;;37.97;24.77;;;;;;;14.68;42.57;94746.75;4950084;28;20027;-75
2022/12/07 10:43:56;;;;;;;29.90;20.65;;;;;;;14.51;42.17;94749.16;4965391;28;20023;-75
2022/12/07 10:46:44;;;;;;;41.10;21.83;;;;;;;14.23;42.97;94742.91;4981873;28;20382;-76
2022/12/07 10:49:43;;;;;;;35.38;21.42;;;;;;;13.85;43.82;94740.69;4982597;28;20031;-76
2022/12/07 10:52:22;;;;;;;32.33;20.95;;;;;;;13.60;44.67;94730.75;4979560;28;20171;-73
2022/12/07 10:54:59;;;;;;;35.00;20.80;;;;;;;13.54;45.00;94731.34;4982056;28;20485;-75
2022/12/07 10:57:46;;;;;;;39.90;21.98;;;;;;;13.50;45.35;94730.75;4967306;28;20027;-76
2022/12/07 11:00:18;;;;;;;33.35;21.45;;;;;;;13.98;44.11;94725.44;4969439;28;20031;-75
2022/12/07 11:03:03;;;;;;;38.55;22.30;;;;;;;14.81;42.95;94711.34;4953852;28;20038;-75
2022/12/07 11:06:07;;;;;;;35.78;23.50;;;;;;;16.17;40.67;94721.81;4952406;28;20094;-76
2022/12/07 11:08:51;;;;;;;35.95;23.08;;;;;;;16.83;38.87;94724.13;4968589;28;20423;-74
2022/12/07 11:11:21;;;;;;;42.58;24.35;;;;;;;16.59;39.38;94713.16;4985929;28;20591;-75
2022/12/07 11:13:54;;;;;;;39.03;24.00;;;;;;;16.43;39.50;94708.88;4968297;28;20037;-76
2022/12/07 11:16:21;;;;;;;46.33;25.77;;;;;;;16.51;39.23;94706.47;4985620;28;20121;-75
2022/12/07 11:19:16;;;;;;;39.75;26.25;;;;;;;17.04;38.12;94694.41;4970629;28;20055;-75
2022/12/07 11:21:51;;;;;;;39.92;25.67;;;;;;;17.48;37.56;94694.16;4951183;28;20039;-75
2022/12/07 11:24:18;;;;;;;35.60;23.42;;;;;;;17.51;37.02;94684.09;4968941;28;20022;-76
2022/12/07 11:27:19;;;;;;;38.00;22.27;;;;;;;18.11;35.72;94688.00;4967657;28;20038;-75
2022/12/07 11:30:00;;;;;;;35.85;23.13;;;;;;;18.90;34.62;94683.06;4948019;29;20043;-75
2022/12/07 11:32:47;;;;;;;35.88;22.30;;;;;;;18.96;33.82;94672.69;4948659;29;20150;-75